Farler, Kentucky
Current Conditions -  °F | °C
As of 6:55 AM on Friday 24 Oct 2014 (Local Time) from KI35 Reporting Station
Overcast Overcast  
Wind Chill: 39°   Ceiling: 100
Heat Index: 39°   Visibility: 4mi
Dew Point: 39°   Wind: 0mph
Humidity: 100%   Direction: NA
Pressure: 30.13"   Gusts: NA
Location:  37.1364°N, 83.1633°W
Report Text: KI35 241055Z AUTO 00000KT 4SM OVC001 04/04 A3013 RMK AO1
Loading
Personal Weather Stations






























Interactive Weather Map
Tropical Storm Tracking
New forecast layout! Learn more

10-Day Weather Forecast

Advertisements
Track Severe Weather on mobile